Time;durP1;ratioP1;P1;durP2;ratioP2;P2;SDS_P1;SDS_P2;PMS_P1;PMS_P2;Temp;Humidity;BMP_temperature;BMP_pressure;BME280_temperature;BME280_humidity;BME280_pressure;Samples;Min_cycle;Max_cycle;Signal;HPM_P1;HPM_P2
2023/02/25 00:01:14;;;;;;;;;;;;;;;20.68;36.37;100137.71;105492;1288;62925;-80
2023/02/25 00:03:40;;;;;;;;;;;;;;;20.67;36.30;100129.34;105680;1288;62120;-81
2023/02/25 00:06:06;;;;;;;;;;;;;;;20.68;36.23;100135.04;105523;1288;62120;-81
2023/02/25 00:08:32;;;;;;;;;;;;;;;20.67;36.25;100144.17;105629;1282;62060;-81
2023/02/25 00:11:05;;;;;;;;;;;;;;;20.67;36.26;100145.08;106310;1282;62104;-81
2023/02/25 00:13:30;;;;;;;;;;;;;;;20.67;36.24;100148.14;106285;1282;61884;-81
2023/02/25 00:15:59;;;;;;;;;;;;;;;20.67;36.30;100155.63;106217;1282;62948;-81
2023/02/25 00:18:26;;;;;;;;;;;;;;;20.67;36.27;100153.52;106175;1287;72317;-81
2023/02/25 00:20:52;;;;;;;;;;;;;;;20.67;36.14;100147.62;106301;1282;77150;-81
2023/02/25 00:23:18;;;;;;;;;;;;;;;20.67;36.29;100143.84;106237;1282;61347;-81
2023/02/25 00:25:44;;;;;;;;;;;;;;;20.67;36.17;100143.50;106228;1283;62084;-81
2023/02/25 00:28:10;;;;;;;;;;;;;;;20.67;36.34;100137.98;106199;1282;61813;-81
2023/02/25 00:30:37;;;;;;;;;;;;;;;20.67;36.24;100134.76;106232;1282;62068;-82
2023/02/25 00:33:03;;;;;;;;;;;;;;;20.67;36.21;100129.75;106204;1282;61980;-81
2023/02/25 00:35:29;;;;;;;;;;;;;;;20.66;36.20;100127.98;106232;1281;62093;-81
2023/02/25 00:37:55;;;;;;;;;;;;;;;20.66;36.18;100121.02;106216;1283;62101;-81
2023/02/25 00:40:21;;;;;;;;;;;;;;;20.67;36.28;100120.80;106301;1285;62021;-81
2023/02/25 00:42:48;;;;;;;;;;;;;;;20.67;36.24;100113.27;106246;1282;62142;-81
2023/02/25 00:45:14;;;;;;;;;;;;;;;20.67;36.17;100102.58;106209;1282;62093;-81
2023/02/25 00:47:40;;;;;;;;;;;;;;;20.66;36.20;100098.69;106235;1282;61925;-81
2023/02/25 00:50:08;;;;;;;;;;;;;;;20.66;36.24;100096.00;106296;1282;62167;-81
2023/02/25 00:52:34;;;;;;;;;;;;;;;20.66;36.42;100098.31;106305;1282;76155;-81
2023/02/25 00:55:00;;;;;;;;;;;;;;;20.66;36.09;100097.10;106093;1282;62095;-81
2023/02/25 00:57:26;;;;;;;;;;;;;;;20.66;36.09;100089.56;106245;1282;62031;-81
2023/02/25 00:59:51;;;;;;;;;;;;;;;20.66;36.30;100090.48;106219;1281;62146;-81
2023/02/25 01:02:17;;;;;;;;;;;;;;;20.66;36.27;100086.21;106226;1287;62025;-81
2023/02/25 01:04:42;;;;;;;;;;;;;;;20.66;36.19;100088.68;106260;1282;62074;-81
2023/02/25 01:07:08;;;;;;;;;;;;;;;20.66;36.36;100088.89;106280;1281;62149;-81
2023/02/25 01:09:33;;;;;;;;;;;;;;;20.66;36.27;100083.13;106418;1282;62050;-81
2023/02/25 01:11:59;;;;;;;;;;;;;;;20.66;36.24;100075.81;106360;1283;62002;-81
2023/02/25 01:14:24;;;;;;;;;;;;;;;20.66;36.23;100066.70;106270;1288;62067;-81
2023/02/25 01:16:50;;;;;;;;;;;;;;;20.66;36.20;100063.82;106608;1283;62178;-81
2023/02/25 01:19:18;;;;;;;;;;;;;;;20.66;36.16;100058.81;106437;1282;62028;-81
2023/02/25 01:21:46;;;;;;;;;;;;;;;20.66;36.16;100064.52;106258;1283;60260;-82
2023/02/25 01:24:14;;;;;;;;;;;;;;;20.67;36.23;100059.98;106223;1282;73518;-81
2023/02/25 01:26:41;;;;;;;;;;;;;;;20.67;36.16;100058.36;106203;1282;75252;-81
2023/02/25 01:29:07;;;;;;;;;;;;;;;20.67;36.14;100054.25;106349;1282;61967;-81
2023/02/25 01:31:32;;;;;;;;;;;;;;;20.67;36.18;100056.92;106254;1282;62089;-81
2023/02/25 01:33:59;;;;;;;;;;;;;;;20.67;36.12;100050.14;106333;1282;62172;-81
2023/02/25 01:36:26;;;;;;;;;;;;;;;20.68;36.11;100045.12;106311;1282;61964;-82
2023/02/25 01:38:52;;;;;;;;;;;;;;;20.67;36.07;100042.99;106239;1287;62169;-81
2023/02/25 01:41:18;;;;;;;;;;;;;;;20.67;36.24;100039.06;106304;1282;62207;-81
2023/02/25 01:44:06;;;;;;;;;;;;;;;20.67;36.03;100043.87;106229;1282;60756;-81
2023/02/25 01:46:31;;;;;;;;;;;;;;;20.67;36.12;100042.67;106224;1281;75248;-81
2023/02/25 01:48:58;;;;;;;;;;;;;;;20.67;36.19;100040.85;106288;1282;62120;-81
2023/02/25 01:51:26;;;;;;;;;;;;;;;20.67;36.10;100032.46;106346;1282;59769;-81
2023/02/25 01:53:51;;;;;;;;;;;;;;;20.67;36.14;100033.54;106270;1283;73238;-81
2023/02/25 01:56:19;;;;;;;;;;;;;;;20.67;36.04;100037.14;106079;1282;62086;-81
2023/02/25 01:58:44;;;;;;;;;;;;;;;20.66;36.24;100037.70;106339;1282;61964;-81
2023/02/25 02:01:10;;;;;;;;;;;;;;;20.67;36.24;100035.73;106312;1282;62139;-81
2023/02/25 02:03:36;;;;;;;;;;;;;;;20.66;36.13;100037.90;106266;1282;62091;-81
2023/02/25 02:06:05;;;;;;;;;;;;;;;20.66;36.02;100037.36;106208;1282;62075;-81
2023/02/25 02:08:31;;;;;;;;;;;;;;;20.66;36.10;100033.61;106294;1282;62091;-82
2023/02/25 02:10:56;;;;;;;;;;;;;;;20.66;36.05;100032.23;106231;1283;62043;-81
2023/02/25 02:13:22;;;;;;;;;;;;;;;20.66;35.93;100028.45;106213;1282;62044;-81
2023/02/25 02:16:08;;;;;;;;;;;;;;;20.65;36.05;100029.74;106184;1283;62145;-81
2023/02/25 02:18:34;;;;;;;;;;;;;;;20.66;36.08;100034.92;106329;1281;62046;-81
2023/02/25 02:21:19;;;;;;;;;;;;;;;20.65;36.01;100039.59;106226;1282;62087;-81
2023/02/25 02:23:49;;;;;;;;;;;;;;;20.66;36.15;100036.52;106227;1282;73371;-81
2023/02/25 02:26:18;;;;;;;;;;;;;;;20.66;36.17;100031.89;106292;1281;76037;-81
2023/02/25 02:29:02;;;;;;;;;;;;;;;20.66;36.11;100025.80;106323;1282;61971;-81
2023/02/25 02:31:28;;;;;;;;;;;;;;;20.65;35.89;100025.30;106311;1281;62171;-82
2023/02/25 02:34:05;;;;;;;;;;;;;;;20.65;36.06;100023.84;106196;1282;62075;-81
2023/02/25 02:36:40;;;;;;;;;;;;;;;20.65;35.94;100016.38;106293;1283;76325;-81
2023/02/25 02:39:05;;;;;;;;;;;;;;;20.65;36.12;100018.86;106315;1282;61814;-81
2023/02/25 02:41:34;;;;;;;;;;;;;;;20.65;35.99;100018.85;106319;1282;62086;-81
2023/02/25 02:44:03;;;;;;;;;;;;;;;20.65;36.00;100014.05;106299;1282;72478;-82
2023/02/25 02:46:33;;;;;;;;;;;;;;;20.65;36.00;100011.20;106306;1282;74636;-81
2023/02/25 02:49:00;;;;;;;;;;;;;;;20.64;35.85;100002.98;106295;1282;61954;-81
2023/02/25 02:51:32;;;;;;;;;;;;;;;20.64;35.97;100004.06;106295;1281;60030;-81
2023/02/25 02:53:58;;;;;;;;;;;;;;;20.64;35.94;100003.02;106264;1282;72169;-81
2023/02/25 02:56:24;;;;;;;;;;;;;;;20.64;36.01;100003.35;106180;1283;62152;-82
2023/02/25 02:58:57;;;;;;;;;;;;;;;20.64;35.95;100000.19;106217;1282;62635;-81
2023/02/25 03:01:27;;;;;;;;;;;;;;;20.64;35.90;100004.80;106308;1282;61947;-81
2023/02/25 03:03:58;;;;;;;;;;;;;;;20.64;36.09;100002.30;106177;1287;72398;-81
2023/02/25 03:06:31;;;;;;;;;;;;;;;20.64;35.92;100002.67;106299;1282;76128;-81
2023/02/25 03:09:05;;;;;;;;;;;;;;;20.64;36.07;100002.70;106223;1282;61855;-81
2023/02/25 03:11:30;;;;;;;;;;;;;;;20.64;35.94;100000.73;106232;1282;61964;-81
2023/02/25 03:13:56;;;;;;;;;;;;;;;20.64;36.09;99999.98;106304;1282;62105;-81
2023/02/25 03:16:24;;;;;;;;;;;;;;;20.64;35.86;100000.56;106216;1282;60741;-81
2023/02/25 03:18:54;;;;;;;;;;;;;;;20.64;36.04;100003.58;106293;1282;61930;-81
2023/02/25 03:21:21;;;;;;;;;;;;;;;20.64;35.96;100006.83;106288;1283;62033;-81
2023/02/25 03:23:47;;;;;;;;;;;;;;;20.64;36.07;100009.82;106224;1282;62151;-81
2023/02/25 03:26:17;;;;;;;;;;;;;;;20.64;35.86;100009.83;106227;1283;75127;-81
2023/02/25 03:28:43;;;;;;;;;;;;;;;20.64;36.06;100010.73;106278;1282;61894;-81
2023/02/25 03:31:15;;;;;;;;;;;;;;;20.65;35.89;100009.59;106284;1282;61973;-81
2023/02/25 03:33:46;;;;;;;;;;;;;;;20.64;35.96;100000.72;106336;1283;72270;-81
2023/02/25 03:36:15;;;;;;;;;;;;;;;20.64;35.81;99992.62;106372;1282;75330;-81
2023/02/25 03:38:42;;;;;;;;;;;;;;;20.64;35.86;99989.09;106411;1283;60776;-81
2023/02/25 03:41:09;;;;;;;;;;;;;;;20.64;35.89;99989.59;106481;1281;60458;-81
2023/02/25 03:43:36;;;;;;;;;;;;;;;20.64;35.90;99993.53;106711;1283;72253;-81
2023/02/25 03:46:01;;;;;;;;;;;;;;;20.65;35.97;99992.22;106313;1281;75393;-81
2023/02/25 03:48:29;;;;;;;;;;;;;;;20.65;36.01;99991.31;106227;1282;62078;-81
2023/02/25 03:50:59;;;;;;;;;;;;;;;20.65;35.96;99986.83;106223;1281;62083;-81
2023/02/25 03:53:25;;;;;;;;;;;;;;;20.65;35.72;99986.48;106214;1282;72568;-81
2023/02/25 03:55:51;;;;;;;;;;;;;;;20.66;35.75;99979.13;106325;1282;61991;-81
2023/02/25 03:58:16;;;;;;;;;;;;;;;20.66;35.83;99980.20;106178;1282;62185;-81
2023/02/25 04:00:42;;;;;;;;;;;;;;;20.65;35.85;99982.20;106313;1282;62159;-81
2023/02/25 04:03:08;;;;;;;;;;;;;;;20.65;35.84;99978.82;106111;1282;62074;-81
2023/02/25 04:05:36;;;;;;;;;;;;;;;20.65;35.77;99976.35;106319;1283;63111;-81
2023/02/25 04:08:01;;;;;;;;;;;;;;;20.64;35.71;99969.03;106257;1282;62025;-81
2023/02/25 04:10:27;;;;;;;;;;;;;;;20.64;35.84;99961.91;106176;1282;62130;-81
2023/02/25 04:12:52;;;;;;;;;;;;;;;20.64;35.81;99954.97;106245;1281;62257;-81
2023/02/25 04:15:18;;;;;;;;;;;;;;;20.64;35.87;99956.21;106217;1283;62102;-81
2023/02/25 04:17:46;;;;;;;;;;;;;;;20.64;35.76;99954.46;106080;1282;62037;-81
2023/02/25 04:20:15;;;;;;;;;;;;;;;20.64;35.63;99952.99;106053;1282;61960;-81
2023/02/25 04:22:40;;;;;;;;;;;;;;;20.63;35.81;99948.22;106072;1282;61882;-81
2023/02/25 04:25:06;;;;;;;;;;;;;;;20.63;35.81;99947.54;106221;1282;62136;-81
2023/02/25 04:27:32;;;;;;;;;;;;;;;20.63;35.78;99947.20;106187;1283;62063;-81
2023/02/25 04:29:57;;;;;;;;;;;;;;;20.62;35.74;99950.23;106240;1282;62075;-81
2023/02/25 04:32:23;;;;;;;;;;;;;;;20.62;35.73;99955.80;106211;1282;62068;-81
2023/02/25 04:34:48;;;;;;;;;;;;;;;20.62;35.65;99948.85;106351;1282;62104;-81
2023/02/25 04:37:14;;;;;;;;;;;;;;;20.62;35.73;99947.06;106311;1282;61215;-81
2023/02/25 04:39:40;;;;;;;;;;;;;;;20.62;35.69;99937.09;106058;1288;62089;-81
2023/02/25 04:42:05;;;;;;;;;;;;;;;20.61;35.63;99934.96;106314;1282;62164;-81
2023/02/25 04:44:32;;;;;;;;;;;;;;;20.62;35.68;99942.83;106312;1281;62046;-80
2023/02/25 04:46:57;;;;;;;;;;;;;;;20.62;35.50;99942.27;106184;1283;62258;-81
2023/02/25 04:49:23;;;;;;;;;;;;;;;20.61;35.60;99945.02;106250;1282;60213;-82
2023/02/25 04:51:50;;;;;;;;;;;;;;;20.61;35.73;99950.72;106288;1282;75344;-81
2023/02/25 04:54:17;;;;;;;;;;;;;;;20.61;35.58;99951.80;106317;1282;62024;-81
2023/02/25 04:56:42;;;;;;;;;;;;;;;20.60;35.56;99949.16;106208;1282;61979;-81
2023/02/25 04:59:10;;;;;;;;;;;;;;;20.60;35.57;99945.21;106307;1282;62082;-81
2023/02/25 05:01:36;;;;;;;;;;;;;;;20.60;35.54;99941.81;106206;1282;60783;-81
2023/02/25 05:04:01;;;;;;;;;;;;;;;20.60;35.65;99936.64;106230;1282;62082;-81
2023/02/25 05:06:27;;;;;;;;;;;;;;;20.60;35.66;99931.27;106214;1283;62101;-81
2023/02/25 05:08:53;;;;;;;;;;;;;;;20.60;35.52;99924.13;106185;1282;62042;-81
2023/02/25 05:11:18;;;;;;;;;;;;;;;20.60;35.65;99922.56;106167;1282;62101;-81
2023/02/25 05:13:44;;;;;;;;;;;;;;;20.60;35.62;99934.69;106267;1282;62033;-81
2023/02/25 05:16:12;;;;;;;;;;;;;;;20.60;35.67;99941.86;106205;1282;60863;-81
2023/02/25 05:18:42;;;;;;;;;;;;;;;20.60;35.56;99941.48;106277;1282;61887;-81
2023/02/25 05:21:12;;;;;;;;;;;;;;;20.60;35.39;99940.63;106260;1282;72269;-81
2023/02/25 05:23:38;;;;;;;;;;;;;;;20.60;35.62;99937.91;106306;1282;75409;-81
2023/02/25 05:26:04;;;;;;;;;;;;;;;20.60;35.50;99943.30;106230;1282;61910;-81
2023/02/25 05:28:30;;;;;;;;;;;;;;;20.60;35.52;99938.42;106082;1282;62171;-81
2023/02/25 05:30:56;;;;;;;;;;;;;;;20.60;35.51;99935.56;106205;1283;61974;-81
2023/02/25 05:33:22;;;;;;;;;;;;;;;20.60;35.53;99933.06;106323;1282;62084;-81
2023/02/25 05:35:48;;;;;;;;;;;;;;;20.60;35.50;99931.44;106190;1282;61966;-81
2023/02/25 05:38:15;;;;;;;;;;;;;;;20.60;35.54;99928.42;106314;1282;62017;-81
2023/02/25 05:40:41;;;;;;;;;;;;;;;20.61;35.45;99928.92;106304;1282;61976;-81
2023/02/25 05:43:07;;;;;;;;;;;;;;;20.61;35.30;99929.27;106304;1282;62090;-82
2023/02/25 05:45:33;;;;;;;;;;;;;;;20.61;35.46;99931.58;106247;1282;61987;-81
2023/02/25 05:47:59;;;;;;;;;;;;;;;20.62;35.42;99924.75;106232;1285;62110;-81
2023/02/25 05:50:24;;;;;;;;;;;;;;;20.62;35.44;99930.27;106334;1282;61963;-81
2023/02/25 05:52:50;;;;;;;;;;;;;;;20.62;35.41;99933.34;106368;1282;62111;-81
2023/02/25 05:55:16;;;;;;;;;;;;;;;20.62;35.43;99927.58;106284;1282;60868;-81
2023/02/25 05:57:42;;;;;;;;;;;;;;;20.63;35.33;99934.50;106397;1281;62054;-81
2023/02/25 06:00:08;;;;;;;;;;;;;;;20.63;35.42;99935.04;106358;1281;62127;-81
2023/02/25 06:02:35;;;;;;;;;;;;;;;20.63;35.46;99934.30;106319;1283;60655;-81
2023/02/25 06:05:01;;;;;;;;;;;;;;;20.63;35.34;99934.95;106465;1282;62028;-81
2023/02/25 06:07:32;;;;;;;;;;;;;;;20.64;35.41;99934.95;106592;1282;62033;-81
2023/02/25 06:10:00;;;;;;;;;;;;;;;20.64;35.29;99927.08;106369;1282;61973;-82
2023/02/25 06:12:29;;;;;;;;;;;;;;;20.65;35.42;99920.56;106364;1282;72556;-81
2023/02/25 06:14:55;;;;;;;;;;;;;;;20.65;35.16;99918.73;106204;1282;76234;-81
2023/02/25 06:17:23;;;;;;;;;;;;;;;20.65;35.32;99916.59;106063;1283;62148;-82
2023/02/25 06:19:50;;;;;;;;;;;;;;;20.66;35.38;99914.59;106227;1282;62799;-80
2023/02/25 06:22:16;;;;;;;;;;;;;;;20.66;35.26;99911.21;105964;1282;72698;-80
2023/02/25 06:24:42;;;;;;;;;;;;;;;20.65;35.16;99912.27;106186;1282;62078;-80
2023/02/25 06:27:07;;;;;;;;;;;;;;;20.66;35.40;99910.28;106088;1282;60968;-80
2023/02/25 06:29:33;;;;;;;;;;;;;;;20.65;35.14;99913.01;106223;1282;63416;-80
2023/02/25 06:32:00;;;;;;;;;;;;;;;20.65;35.38;99914.79;106189;1282;62193;-80
2023/02/25 06:34:31;;;;;;;;;;;;;;;20.65;35.31;99911.03;106307;1283;62142;-82
2023/02/25 06:36:57;;;;;;;;;;;;;;;20.65;35.26;99905.16;106193;1282;62082;-81
2023/02/25 06:39:23;;;;;;;;;;;;;;;20.66;35.37;99898.88;106182;1282;62152;-81
2023/02/25 06:41:48;;;;;;;;;;;;;;;20.65;35.25;99892.64;106223;1283;62074;-80
2023/02/25 06:44:14;;;;;;;;;;;;;;;20.66;35.25;99890.30;106219;1282;60018;-81
2023/02/25 06:46:39;;;;;;;;;;;;;;;20.65;35.28;99877.46;106223;1282;62104;-81
2023/02/25 06:49:05;;;;;;;;;;;;;;;20.65;35.35;99869.41;106212;1282;61954;-81
2023/02/25 06:51:30;;;;;;;;;;;;;;;20.65;35.48;99871.71;106223;1282;62047;-81
2023/02/25 06:53:56;;;;;;;;;;;;;;;20.65;35.24;99871.90;106178;1283;60998;-82
2023/02/25 06:56:21;;;;;;;;;;;;;;;20.66;35.41;99872.92;106341;1282;62200;-81
2023/02/25 06:58:48;;;;;;;;;;;;;;;20.65;35.28;99867.08;106207;1281;60767;-81
2023/02/25 07:01:14;;;;;;;;;;;;;;;20.65;35.29;99871.88;106100;1285;62056;-82
2023/02/25 07:03:39;;;;;;;;;;;;;;;20.66;35.25;99882.05;105397;1285;769203;-81
2023/02/25 07:06:05;;;;;;;;;;;;;;;20.66;35.34;99874.90;105999;1286;62010;-81
2023/02/25 07:08:32;;;;;;;;;;;;;;;20.66;35.32;99881.48;105877;1290;62111;-82
2023/02/25 07:11:16;;;;;;;;;;;;;;;20.66;35.26;99867.37;105953;1286;62037;-81
2023/02/25 07:13:47;;;;;;;;;;;;;;;20.66;35.44;99853.39;106037;1285;61896;-81
2023/02/25 07:16:12;;;;;;;;;;;;;;;20.67;35.49;99856.58;105947;1286;72693;-81
2023/02/25 07:18:39;;;;;;;;;;;;;;;20.66;35.40;99849.48;105973;1286;62098;-81
2023/02/25 07:21:05;;;;;;;;;;;;;;;20.66;35.38;99839.11;105920;1285;62088;-82
2023/02/25 07:23:31;;;;;;;;;;;;;;;20.67;35.51;99841.73;106046;1285;62229;-81
2023/02/25 07:25:56;;;;;;;;;;;;;;;20.66;35.30;99846.92;105928;1286;62024;-81
2023/02/25 07:28:22;;;;;;;;;;;;;;;20.66;35.36;99846.59;105937;1288;62329;-81
2023/02/25 07:30:47;;;;;;;;;;;;;;;20.67;35.40;99844.75;105977;1285;62088;-81
2023/02/25 07:33:13;;;;;;;;;;;;;;;20.67;35.39;99837.62;106242;1282;62226;-81
2023/02/25 07:35:39;;;;;;;;;;;;;;;20.67;35.39;99843.11;106241;1282;62213;-81
2023/02/25 07:38:05;;;;;;;;;;;;;;;20.67;35.31;99840.61;106233;1283;62028;-81
2023/02/25 07:40:30;;;;;;;;;;;;;;;20.68;35.49;99847.00;106195;1287;62104;-81
2023/02/25 07:42:56;;;;;;;;;;;;;;;20.68;35.36;99846.66;106190;1283;62101;-82
2023/02/25 07:45:22;;;;;;;;;;;;;;;20.68;35.36;99845.23;106199;1283;62070;-81
2023/02/25 07:47:47;;;;;;;;;;;;;;;20.68;35.39;99846.27;106363;1282;60870;-81
2023/02/25 07:50:13;;;;;;;;;;;;;;;20.68;35.43;99851.96;106159;1282;62118;-81
2023/02/25 07:52:38;;;;;;;;;;;;;;;20.69;35.36;99836.02;106178;1282;62101;-81
2023/02/25 07:55:04;;;;;;;;;;;;;;;20.69;35.43;99825.30;106277;1282;62175;-81
2023/02/25 07:57:30;;;;;;;;;;;;;;;20.69;35.54;99815.64;106223;1282;62064;-81
2023/02/25 07:59:55;;;;;;;;;;;;;;;20.69;35.40;99815.81;106391;1283;62187;-80
2023/02/25 08:02:21;;;;;;;;;;;;;;;20.69;35.55;99819.77;105979;1282;71617;-81
2023/02/25 08:04:46;;;;;;;;;;;;;;;20.69;35.52;99817.23;106314;1282;62093;-82
2023/02/25 08:07:12;;;;;;;;;;;;;;;20.70;35.48;99817.19;106226;1282;60084;-81
2023/02/25 08:09:37;;;;;;;;;;;;;;;20.69;35.51;99815.77;106239;1283;62111;-81
2023/02/25 08:12:03;;;;;;;;;;;;;;;20.70;35.56;99816.45;106377;1282;59859;-81
2023/02/25 08:14:29;;;;;;;;;;;;;;;20.70;35.50;99817.52;106330;1282;72108;-81
2023/02/25 08:16:55;;;;;;;;;;;;;;;20.70;35.54;99808.73;106260;1282;62100;-81
2023/02/25 08:19:20;;;;;;;;;;;;;;;20.70;35.50;99802.14;106304;1282;62213;-81
2023/02/25 08:21:46;;;;;;;;;;;;;;;20.70;35.67;99802.11;106349;1283;59996;-81
2023/02/25 08:24:13;;;;;;;;;;;;;;;20.71;35.59;99803.13;106458;1282;62087;-82
2023/02/25 08:26:39;;;;;;;;;;;;;;;20.71;35.56;99800.94;106560;1281;61976;-81
2023/02/25 08:29:06;;;;;;;;;;;;;;;20.72;35.47;99799.64;106490;1282;62089;-81
2023/02/25 08:31:32;;;;;;;;;;;;;;;20.72;35.65;99794.61;106764;1281;62068;-81
2023/02/25 08:33:58;;;;;;;;;;;;;;;20.73;35.75;99793.48;106281;1284;62165;-81
2023/02/25 08:36:25;;;;;;;;;;;;;;;20.74;35.55;99793.60;106260;1283;62072;-82
2023/02/25 08:38:52;;;;;;;;;;;;;;;20.74;35.63;99793.05;106206;1287;76063;-81
2023/02/25 08:41:18;;;;;;;;;;;;;;;20.74;35.55;99792.83;106318;1281;62072;-82
2023/02/25 08:43:47;;;;;;;;;;;;;;;20.74;35.71;99791.77;106200;1282;62101;-81
2023/02/25 08:46:12;;;;;;;;;;;;;;;20.75;35.74;99791.70;106081;1282;72933;-82
2023/02/25 08:48:38;;;;;;;;;;;;;;;20.75;35.54;99789.39;106194;1282;62139;-81
2023/02/25 08:51:07;;;;;;;;;;;;;;;20.74;35.66;99775.67;106178;1283;62100;-81
2023/02/25 08:53:35;;;;;;;;;;;;;;;20.74;35.65;99766.34;106239;1283;62003;-81
2023/02/25 08:56:02;;;;;;;;;;;;;;;20.74;35.64;99767.61;106189;1282;72484;-81
2023/02/25 08:58:28;;;;;;;;;;;;;;;20.74;35.77;99766.54;106262;1282;75270;-81
2023/02/25 09:00:54;;;;;;;;;;;;;;;20.75;35.63;99764.57;106252;1283;62136;-82
2023/02/25 09:03:19;;;;;;;;;;;;;;;20.75;35.61;99764.91;106214;1281;61967;-81
2023/02/25 09:05:50;;;;;;;;;;;;;;;20.74;35.66;99762.61;106228;1282;62169;-82
2023/02/25 09:08:15;;;;;;;;;;;;;;;20.75;35.80;99763.44;106181;1281;76343;-81
2023/02/25 09:10:42;;;;;;;;;;;;;;;20.75;35.66;99767.90;106283;1282;62085;-81
2023/02/25 09:13:08;;;;;;;;;;;;;;;20.75;35.76;99763.27;106162;1283;62052;-81
2023/02/25 09:15:34;;;;;;;;;;;;;;;20.75;35.74;99756.09;106307;1282;62104;-81
2023/02/25 09:18:02;;;;;;;;;;;;;;;20.75;35.76;99756.43;106291;1285;62088;-81
2023/02/25 09:20:28;;;;;;;;;;;;;;;20.75;35.61;99752.88;106191;1284;61918;-82
2023/02/25 09:22:54;;;;;;;;;;;;;;;20.76;35.73;99757.30;106183;1283;62193;-82
2023/02/25 09:25:20;;;;;;;;;;;;;;;20.75;35.73;99758.98;106181;1283;62850;-81
2023/02/25 09:27:46;;;;;;;;;;;;;;;20.75;35.73;99755.06;106190;1287;62090;-81
2023/02/25 09:30:11;;;;;;;;;;;;;;;20.75;35.81;99749.66;106204;1282;60945;-82
2023/02/25 09:32:38;;;;;;;;;;;;;;;20.76;35.71;99741.92;106280;1282;62058;-81
2023/02/25 09:35:04;;;;;;;;;;;;;;;20.75;35.81;99738.55;106280;1283;62079;-81
2023/02/25 09:37:30;;;;;;;;;;;;;;;20.76;35.74;99732.80;106352;1282;62046;-81
2023/02/25 09:39:56;;;;;;;;;;;;;;;20.75;35.78;99729.65;106181;1288;73169;-81
2023/02/25 09:42:23;;;;;;;;;;;;;;;20.75;35.84;99727.30;106184;1284;62085;-81
2023/02/25 09:44:55;;;;;;;;;;;;;;;20.75;35.88;99725.91;106077;1282;61984;-82
2023/02/25 09:47:36;;;;;;;;;;;;;;;20.75;35.83;99725.19;106182;1282;73358;-81
2023/02/25 09:50:05;;;;;;;;;;;;;;;20.75;35.90;99725.55;106173;1282;75390;-82
2023/02/25 09:52:33;;;;;;;;;;;;;;;20.75;35.86;99723.54;106286;1282;61884;-81
2023/02/25 09:55:05;;;;;;;;;;;;;;;20.75;35.93;99723.55;106251;1288;62091;-82
2023/02/25 09:57:31;;;;;;;;;;;;;;;20.75;35.87;99719.98;106181;1287;72503;-82
2023/02/25 09:59:57;;;;;;;;;;;;;;;20.75;35.74;99715.13;106212;1286;62098;-81
2023/02/25 10:02:35;;;;;;;;;;;;;;;20.75;35.84;99710.67;106189;1283;63047;-82
2023/02/25 10:05:10;;;;;;;;;;;;;;;20.75;35.77;99700.31;106314;1282;60778;-81
2023/02/25 10:07:40;;;;;;;;;;;;;;;20.75;35.94;99699.61;106271;1285;72448;-81
2023/02/25 10:10:12;;;;;;;;;;;;;;;20.75;35.98;99699.58;106306;1282;75362;-81
2023/02/25 10:12:44;;;;;;;;;;;;;;;20.75;35.93;99699.94;106203;1282;61978;-81
2023/02/25 10:15:17;;;;;;;;;;;;;;;20.75;35.90;99697.29;106288;1282;60467;-81
2023/02/25 10:18:02;;;;;;;;;;;;;;;20.75;35.99;99689.58;106282;1282;72459;-81
2023/02/25 10:20:41;;;;;;;;;;;;;;;20.76;36.00;99679.00;106290;1282;75187;-82
2023/02/25 10:23:25;;;;;;;;;;;;;;;20.75;36.00;99674.54;106317;1282;62085;-82
2023/02/25 10:25:59;;;;;;;;;;;;;;;20.75;36.02;99677.05;106289;1285;61909;-81
2023/02/25 10:28:26;;;;;;;;;;;;;;;20.76;35.86;99670.58;106202;1283;72418;-81
2023/02/25 10:31:01;;;;;;;;;;;;;;;20.76;35.93;99675.91;106290;1283;76163;-81
2023/02/25 10:33:27;;;;;;;;;;;;;;;20.76;36.03;99682.55;106335;1283;61967;-81
2023/02/25 10:36:13;;;;;;;;;;;;;;;20.76;36.03;99677.35;106243;1283;62019;-81
2023/02/25 10:38:44;;;;;;;;;;;;;;;20.76;35.95;99674.66;106336;1282;72673;-81
2023/02/25 10:41:09;;;;;;;;;;;;;;;20.77;35.97;99676.23;106443;1285;75081;-81
2023/02/25 10:43:35;;;;;;;;;;;;;;;20.77;35.94;99674.62;106319;1282;62161;-81
2023/02/25 10:46:09;;;;;;;;;;;;;;;20.77;35.95;99667.28;106352;1282;62065;-81
2023/02/25 10:48:34;;;;;;;;;;;;;;;20.78;35.98;99654.71;106475;1283;72553;-81
2023/02/25 10:51:10;;;;;;;;;;;;;;;20.78;35.94;99649.33;106452;1283;62212;-81
2023/02/25 10:53:37;;;;;;;;;;;;;;;20.79;36.15;99645.86;106721;1282;60889;-81
2023/02/25 10:56:04;;;;;;;;;;;;;;;20.79;35.96;99636.15;106466;1288;62076;-81
2023/02/25 10:58:39;;;;;;;;;;;;;;;20.80;35.98;99633.61;106204;1283;73679;-81
2023/02/25 11:01:09;;;;;;;;;;;;;;;20.80;36.02;99632.10;106286;1282;76246;-81
2023/02/25 11:03:57;;;;;;;;;;;;;;;20.81;35.99;99626.52;106298;1282;61955;-82
2023/02/25 11:06:24;;;;;;;;;;;;;;;20.81;36.06;99624.33;106305;1282;62045;-81
2023/02/25 11:08:53;;;;;;;;;;;;;;;20.82;36.13;99617.80;106195;1283;73427;-81
2023/02/25 11:11:22;;;;;;;;;;;;;;;20.83;36.10;99613.66;106298;1283;76199;-81
2023/02/25 11:14:07;;;;;;;;;;;;;;;20.83;35.96;99614.73;106263;1285;61941;-81
2023/02/25 11:16:36;;;;;;;;;;;;;;;20.81;36.11;99613.31;106090;1283;62011;-81
2023/02/25 11:19:22;;;;;;;;;;;;;;;20.81;36.07;99613.79;106023;1282;72643;-81
2023/02/25 11:21:48;;;;;;;;;;;;;;;20.80;36.09;99612.44;106301;1285;75086;-81
2023/02/25 11:24:14;;;;;;;;;;;;;;;20.81;36.00;99604.36;106226;1287;62079;-81
2023/02/25 11:26:42;;;;;;;;;;;;;;;20.80;36.13;99601.56;106292;1283;62171;-81
2023/02/25 11:29:17;;;;;;;;;;;;;;;20.81;36.04;99604.52;106204;1282;72365;-81
2023/02/25 11:31:43;;;;;;;;;;;;;;;20.80;36.08;99606.89;106281;1282;76197;-81
2023/02/25 11:34:20;;;;;;;;;;;;;;;20.81;36.24;99611.36;106176;1282;62194;-81
2023/02/25 11:36:45;;;;;;;;;;;;;;;20.81;36.05;99616.73;106197;1281;62078;-81
2023/02/25 11:39:17;;;;;;;;;;;;;;;20.81;36.12;99621.14;106220;1283;59932;-81
2023/02/25 11:41:43;;;;;;;;;;;;;;;20.80;35.94;99618.16;106184;1283;76395;-82
2023/02/25 11:44:17;;;;;;;;;;;;;;;20.80;36.11;99620.48;106292;1282;62053;-81
2023/02/25 11:46:43;;;;;;;;;;;;;;;20.80;36.16;99617.83;106201;1283;62053;-81
2023/02/25 11:49:11;;;;;;;;;;;;;;;20.80;35.99;99613.51;106188;1286;62075;-82
2023/02/25 11:52:00;;;;;;;;;;;;;;;20.80;36.14;99610.71;106314;1285;76289;-81
2023/02/25 11:54:31;;;;;;;;;;;;;;;20.80;36.09;99615.15;106300;1283;61983;-81
2023/02/25 11:57:00;;;;;;;;;;;;;;;20.80;36.08;99618.02;106216;1288;61964;-81
2023/02/25 11:59:36;;;;;;;;;;;;;;;20.80;36.07;99615.14;106227;1283;72564;-81
2023/02/25 12:02:22;;;;;;;;;;;;;;;20.80;36.05;99604.25;106244;1285;76106;-81
2023/02/25 12:04:58;;;;;;;;;;;;;;;20.80;36.07;99596.89;105972;1286;62130;-81
2023/02/25 12:07:23;;;;;;;;;;;;;;;20.81;36.31;99593.27;105942;1286;61953;-81
2023/02/25 12:09:51;;;;;;;;;;;;;;;20.81;36.17;99586.29;105962;1286;62143;-81
2023/02/25 12:12:38;;;;;;;;;;;;;;;20.81;36.29;99577.37;105877;1285;75472;-82
2023/02/25 12:15:09;;;;;;;;;;;;;;;20.81;36.38;99577.18;105991;1288;61963;-81
2023/02/25 12:17:47;;;;;;;;;;;;;;;20.81;36.21;99570.39;105943;1285;62184;-81
2023/02/25 12:20:35;;;;;;;;;;;;;;;20.80;36.34;99575.24;105982;1288;73951;-81
2023/02/25 12:23:02;;;;;;;;;;;;;;;20.81;36.31;99582.14;105929;1285;75103;-81
2023/02/25 12:25:40;;;;;;;;;;;;;;;20.82;36.39;99587.13;105929;1286;62440;-81
2023/02/25 12:28:15;;;;;;;;;;;;;;;20.81;36.35;99580.56;105938;1290;62074;-81
2023/02/25 12:30:44;;;;;;;;;;;;;;;20.81;36.38;99575.92;105962;1287;73462;-81
2023/02/25 12:33:30;;;;;;;;;;;;;;;20.81;36.48;99578.93;105970;1285;75290;-81
2023/02/25 12:36:06;;;;;;;;;;;;;;;20.82;36.40;99584.19;106086;1283;62032;-82
2023/02/25 12:38:50;;;;;;;;;;;;;;;20.83;36.45;99580.17;106297;1282;61919;-81